NCAR-RAP Real-Time Weather Data

Output produced by METARs form (08 May 2021  02:23 UTC)
found at http://weather.rap.ucar.edu/surface/
 
KTOP 080153Z AUTO 11004KT 10SM OVC070 15/09 A2998 RMK AO2 SLP150 T01500089
KTOP 080053Z AUTO 11006KT 10SM OVC075 16/08 A2998 RMK AO2 SLP151 T01560083
KTOP 072353Z 13006KT 10SM OVC075 16/09 A3000 RMK AO2 SLP160 T01610089 10206 20161 58016
KTOP 072253Z 18006KT 10SM OVC070 16/08 A3002 RMK AO2 SLP166 T01610083
KTOP 072153Z 19005KT 10SM OVC070 16/08 A3004 RMK AO2 SLP171 T01610083
KTOP 072053Z 19005KT 10SM OVC070 17/08 A3005 RMK AO2 SLP176 T01670083 56023
KTOP 071953Z 16006KT 10SM OVC070 18/06 A3007 RMK AO2 SLP181 T01780061
KTOP 071853Z 19008KT 10SM OVC080 19/06 A3010 RMK AO2 SLP190 T01890056
KTOP 071753Z 20008KT 10SM OVC090 21/03 A3012 RMK AO2 SLP197 60000 T02060033 10217 20061 58009
KTOP 071653Z 21008KT 190V260 10SM OVC095 21/02 A3014 RMK AO2 SLP204 T02110022
KTOP 071553Z 22006KT 10SM OVC085 19/03 A3015 RMK AO2 RAB26E36 SLP207 P0000 T01890028
KTOP 071453Z 20007KT 10SM BKN085 18/02 A3015 RMK AO2 SLP207 T01780022 58003
KTOP 071353Z 22006KT 10SM OVC090 15/02 A3016 RMK AO2 SLP211 T01500017
KTOP 071253Z VRB03KT 10SM CLR 11/03 A3017 RMK AO2 SLP215 T01060028
KTOP 071153Z 00000KT 10SM CLR 06/02 A3016 RMK AO2 SLP211 T00610017 10089 20039 53003